Time;durP1;ratioP1;P1;durP2;ratioP2;P2;SDS_P1;SDS_P2;PMS_P1;PMS_P2;Temp;Humidity;BMP_temperature;BMP_pressure;BME280_temperature;BME280_humidity;BME280_pressure;Samples;Min_cycle;Max_cycle;Signal;HPM_P1;HPM_P2
2021/12/22 00:02:04;;;;;;;19.73;14.55;;;;;;;-2.88;95.24;97485.72;5091745;28;20465;-65
2021/12/22 00:04:32;;;;;;;22.80;15.63;;;;;;;-2.45;93.36;97490.66;5091489;28;20830;-66
2021/12/22 00:06:57;;;;;;;21.23;14.67;;;;;;;-2.52;93.67;97481.88;5091821;28;20890;-64
2021/12/22 00:09:22;;;;;;;20.17;15.10;;;;;;;-2.56;93.49;97480.50;5091638;28;20405;-64
2021/12/22 00:11:49;;;;;;;18.52;14.25;;;;;;;-2.60;93.64;97482.50;5091516;28;20389;-64
2021/12/22 00:14:15;;;;;;;22.10;15.33;;;;;;;-2.62;93.43;97478.47;5091714;28;20421;-64
2021/12/22 00:16:41;;;;;;;20.77;15.00;;;;;;;-2.66;93.52;97477.88;5091859;28;20914;-64
2021/12/22 00:19:07;;;;;;;19.73;14.75;;;;;;;-2.55;93.61;97474.44;5091718;28;20398;-64
2021/12/22 00:21:32;;;;;;;19.08;14.90;;;;;;;-2.68;92.99;97474.66;5091672;28;20418;-63
2021/12/22 00:23:58;;;;;;;19.83;14.43;;;;;;;-2.75;93.10;97470.16;5091001;28;20485;-64
2021/12/22 00:26:23;;;;;;;21.52;14.98;;;;;;;-2.74;93.78;97472.59;5091049;28;20747;-64
2021/12/22 00:28:49;;;;;;;19.00;14.23;;;;;;;-2.98;94.17;97475.41;5091542;28;20872;-64
2021/12/22 00:31:16;;;;;;;18.70;13.52;;;;;;;-3.14;94.20;97464.78;5089805;28;20404;-64
2021/12/22 00:33:50;;;;;;;19.40;14.05;;;;;;;-3.10;94.80;97473.84;5090900;28;20897;-64
2021/12/22 00:36:22;;;;;;;20.02;14.32;;;;;;;-3.16;95.31;97468.41;5091914;28;20428;-64
2021/12/22 00:38:49;;;;;;;18.47;13.93;;;;;;;-3.14;95.31;97466.53;5091769;28;20414;-64
2021/12/22 00:41:14;;;;;;;17.25;12.95;;;;;;;-3.18;95.30;97467.72;5090393;28;20389;-64
2021/12/22 00:43:40;;;;;;;19.17;13.40;;;;;;;-3.25;95.13;97476.84;5091247;28;20532;-64
2021/12/22 00:46:06;;;;;;;21.33;14.32;;;;;;;-3.29;95.79;97471.16;5091235;28;20469;-64
2021/12/22 00:48:32;;;;;;;19.75;14.32;;;;;;;-3.02;94.19;97473.22;5090183;28;20862;-64
2021/12/22 00:50:58;;;;;;;18.25;13.77;;;;;;;-2.99;92.85;97472.97;5091447;28;20861;-65
2021/12/22 00:53:23;;;;;;;20.05;14.27;;;;;;;-3.02;93.24;97479.19;5091437;28;20397;-64
2021/12/22 00:55:49;;;;;;;19.48;13.88;;;;;;;-3.21;94.45;97483.34;5091510;28;20763;-64
2021/12/22 00:58:15;;;;;;;18.92;14.30;;;;;;;-3.11;93.72;97491.91;5090879;28;20398;-68
2021/12/22 01:00:41;;;;;;;18.90;14.13;;;;;;;-3.29;94.53;97491.66;5091321;28;20451;-64
2021/12/22 01:03:07;;;;;;;19.77;14.80;;;;;;;-3.21;94.54;97491.84;5089670;28;20885;-68
2021/12/22 01:05:33;;;;;;;19.73;14.75;;;;;;;-3.44;95.32;97487.75;5090868;28;20469;-68
2021/12/22 01:07:58;;;;;;;23.63;15.00;;;;;;;-3.49;95.09;97477.88;5091069;28;20473;-64
2021/12/22 01:10:27;;;;;;;20.27;15.30;;;;;;;-3.34;94.56;97486.06;5090781;28;20386;-64
2021/12/22 01:12:55;;;;;;;21.08;14.60;;;;;;;-3.27;94.56;97486.41;5091041;28;20477;-64
2021/12/22 01:15:22;;;;;;;21.85;15.18;;;;;;;-3.25;94.81;97480.22;5090955;28;20440;-64
2021/12/22 01:17:51;;;;;;;19.75;14.65;;;;;;;-3.29;94.42;97472.91;5091055;28;20390;-64
2021/12/22 01:20:31;;;;;;;22.83;15.68;;;;;;;-3.41;94.87;97472.97;5090840;28;20397;-64
2021/12/22 01:23:02;;;;;;;24.27;15.95;;;;;;;-3.16;93.99;97476.09;5090909;28;20703;-64
2021/12/22 01:25:29;;;;;;;22.88;16.17;;;;;;;-3.01;93.47;97477.44;5090811;28;20386;-64
2021/12/22 01:27:55;;;;;;;22.27;16.70;;;;;;;-3.15;93.99;97483.66;5091232;28;20462;-64
2021/12/22 01:30:26;;;;;;;21.33;15.80;;;;;;;-3.24;94.16;97486.16;5090955;28;20390;-64
2021/12/22 01:32:55;;;;;;;24.38;16.50;;;;;;;-3.42;93.53;97494.38;5090640;28;20386;-64
2021/12/22 01:35:23;;;;;;;22.05;16.38;;;;;;;-3.26;94.33;97483.72;5090557;28;20443;-64
2021/12/22 01:37:49;;;;;;;25.55;17.35;;;;;;;-3.13;93.42;97496.38;5090468;28;20423;-64
2021/12/22 01:40:16;;;;;;;22.13;16.67;;;;;;;-3.50;94.35;97491.59;5094889;28;20390;-63
2021/12/22 01:42:42;;;;;;;22.27;16.40;;;;;;;-3.26;94.19;97498.28;5093240;28;20386;-64
2021/12/22 01:45:25;;;;;;;23.55;17.38;;;;;;;-3.17;93.54;97502.66;5094487;28;20410;-69
2021/12/22 01:50:43;;;;;;;26.10;17.45;;;;;;;-3.25;93.89;97508.41;5094910;28;20401;-64
2021/12/22 01:53:20;;;;;;;25.10;17.50;;;;;;;-3.40;94.45;97504.53;5094041;28;20477;-64
2021/12/22 01:55:58;;;;;;;25.15;17.35;;;;;;;-3.34;94.42;97498.88;5094556;28;20422;-64
2021/12/22 01:58:33;;;;;;;25.50;18.15;;;;;;;-3.26;93.96;97498.28;5095001;28;20415;-64
2021/12/22 02:01:01;;;;;;;25.83;17.67;;;;;;;-3.41;94.75;97487.53;5094698;28;20421;-64
2021/12/22 02:03:27;;;;;;;27.90;18.63;;;;;;;-3.41;94.72;97487.53;5093625;28;20501;-64
2021/12/22 02:05:52;;;;;;;29.03;18.60;;;;;;;-3.48;94.94;97487.19;5093591;28;20509;-64
2021/12/22 02:08:17;;;;;;;26.33;18.43;;;;;;;-3.37;94.10;97486.31;5092825;28;20772;-64
2021/12/22 02:10:47;;;;;;;24.37;17.87;;;;;;;-3.50;94.80;97486.47;5094077;28;20462;-64
2021/12/22 02:13:20;;;;;;;27.27;18.95;;;;;;;-3.57;95.26;97494.78;5094508;28;20447;-64
2021/12/22 02:15:47;;;;;;;26.88;18.80;;;;;;;-3.75;96.26;97488.56;5093979;28;20394;-64
2021/12/22 02:18:17;;;;;;;29.80;21.85;;;;;;;-3.75;96.66;97486.00;5093915;28;20386;-64
2021/12/22 02:20:43;;;;;;;28.63;20.47;;;;;;;-3.82;96.63;97490.78;5093889;28;20421;-67
2021/12/22 02:23:08;;;;;;;26.55;18.33;;;;;;;-3.86;97.14;97485.09;5094018;28;20439;-64
2021/12/22 02:25:41;;;;;;;25.23;17.33;;;;;;;-3.77;96.53;97480.97;5093966;28;20778;-64
2021/12/22 02:28:14;;;;;;;21.83;16.13;;;;;;;-3.86;96.50;97476.59;5094161;28;20414;-64
2021/12/22 02:30:39;;;;;;;26.80;17.42;;;;;;;-3.78;96.37;97482.72;5093670;28;20409;-64
2021/12/22 02:33:25;;;;;;;24.70;16.83;;;;;;;-3.75;96.15;97484.25;5093613;28;20386;-64
2021/12/22 02:38:28;;;;;;;23.25;16.77;;;;;;;-3.94;97.13;97471.25;5093599;28;20410;-64
2021/12/22 02:40:53;;;;;;;24.63;16.97;;;;;;;-3.98;96.58;97473.25;5093345;28;20416;-64
2021/12/22 02:43:24;;;;;;;24.10;16.30;;;;;;;-4.12;97.15;97478.59;5093635;28;20408;-64
2021/12/22 02:45:51;;;;;;;23.90;16.93;;;;;;;-4.06;98.08;97479.88;5093717;28;20460;-64
2021/12/22 02:48:18;;;;;;;22.60;16.55;;;;;;;-4.14;98.14;97485.59;5093677;28;21017;-64
2021/12/22 02:50:44;;;;;;;26.15;16.90;;;;;;;-4.20;97.76;97479.22;5092667;28;20414;-64
2021/12/22 02:53:13;;;;;;;25.63;17.55;;;;;;;-4.08;97.18;97489.44;5093241;28;20426;-64
2021/12/22 02:58:33;;;;;;;23.52;17.00;;;;;;;-4.14;97.70;97485.59;5093400;28;20904;-64
2021/12/22 03:05:52;;;;;;;24.30;17.07;;;;;;;-4.26;97.77;97476.31;5092664;28;20497;-64
2021/12/22 03:08:18;;;;;;;23.33;17.00;;;;;;;-4.15;96.66;97480.59;5093220;28;20394;-64
2021/12/22 03:10:43;;;;;;;24.05;17.45;;;;;;;-3.91;95.37;97483.81;5091705;28;20889;-65
2021/12/22 03:13:08;;;;;;;24.93;17.67;;;;;;;-4.09;96.20;97478.38;5092973;28;20451;-64
2021/12/22 03:15:34;;;;;;;22.93;16.37;;;;;;;-4.09;95.84;97472.44;5092011;28;20420;-63
2021/12/22 03:18:00;;;;;;;22.42;16.35;;;;;;;-3.93;95.33;97485.69;5093008;28;20441;-64
2021/12/22 03:20:25;;;;;;;22.17;16.88;;;;;;;-3.99;94.92;97484.41;5092540;28;20754;-64
2021/12/22 03:22:52;;;;;;;24.05;17.77;;;;;;;-3.87;93.90;97478.34;5092692;28;20386;-66
2021/12/22 03:25:18;;;;;;;23.05;16.98;;;;;;;-4.03;94.93;97482.22;5075844;28;21205;-64
2021/12/22 03:27:46;;;;;;;25.25;17.17;;;;;;;-4.15;95.83;97478.84;5092959;28;20390;-64
2021/12/22 03:30:13;;;;;;;22.07;16.63;;;;;;;-4.01;95.11;97486.25;5092407;28;20720;-64
2021/12/22 03:32:39;;;;;;;25.00;17.85;;;;;;;-4.15;95.43;97475.47;5093285;28;20571;-64
2021/12/22 03:35:05;;;;;;;25.08;17.17;;;;;;;-4.16;95.89;97476.41;5092337;28;20742;-64
2021/12/22 03:37:30;;;;;;;23.97;17.10;;;;;;;-4.05;94.30;97477.19;5092406;28;20496;-64
2021/12/22 03:39:56;;;;;;;24.27;16.57;;;;;;;-4.26;95.23;97471.19;5092003;28;20877;-64
2021/12/22 03:42:21;;;;;;;24.07;17.87;;;;;;;-4.16;95.07;97477.22;5092656;28;20506;-64
2021/12/22 03:44:47;;;;;;;23.17;17.13;;;;;;;-4.42;96.39;97492.00;5091959;28;20406;-64
2021/12/22 03:47:12;;;;;;;24.77;17.03;;;;;;;-4.43;96.69;97485.25;5091076;28;20451;-64
2021/12/22 03:49:38;;;;;;;23.30;17.03;;;;;;;-4.25;96.33;97494.09;5092033;28;20385;-64
2021/12/22 03:52:05;;;;;;;25.10;17.30;;;;;;;-4.28;95.91;97502.00;5091805;28;20390;-64
2021/12/22 03:54:30;;;;;;;22.17;16.48;;;;;;;-4.50;95.75;97507.13;5091971;28;20591;-64
2021/12/22 03:56:56;;;;;;;22.23;16.13;;;;;;;-4.60;97.05;97513.84;5092185;28;20386;-64
2021/12/22 03:59:23;;;;;;;23.40;16.67;;;;;;;-4.56;96.10;97501.63;5091925;28;20539;-64
2021/12/22 04:01:49;;;;;;;23.37;15.80;;;;;;;-4.41;96.59;97497.94;5092321;28;20424;-64
2021/12/22 04:04:15;;;;;;;21.60;16.60;;;;;;;-4.51;96.06;97494.47;5091938;28;20417;-68
2021/12/22 04:06:43;;;;;;;21.13;15.70;;;;;;;-4.48;96.31;97491.66;5074781;28;20401;-64
2021/12/22 04:09:09;;;;;;;23.13;16.35;;;;;;;-4.48;95.84;97489.91;5092099;28;20398;-64
2021/12/22 04:11:35;;;;;;;22.15;16.38;;;;;;;-4.38;95.28;97492.59;5092183;28;20699;-64
2021/12/22 04:14:01;;;;;;;21.40;16.53;;;;;;;-4.39;94.52;97498.63;5091892;28;20400;-64
2021/12/22 04:16:26;;;;;;;21.65;16.70;;;;;;;-4.50;94.98;97507.13;5092027;28;20400;-64
2021/12/22 04:18:51;;;;;;;22.20;15.70;;;;;;;-4.56;94.80;97502.47;5091985;28;20481;-64
2021/12/22 04:21:17;;;;;;;21.60;15.97;;;;;;;-4.38;94.77;97505.38;5091766;28;20451;-64
2021/12/22 04:23:43;;;;;;;22.25;15.95;;;;;;;-4.26;93.97;97499.34;5091867;28;20414;-64
2021/12/22 04:26:10;;;;;;;22.77;16.10;;;;;;;-4.25;93.40;97496.66;5090287;28;20475;-64
2021/12/22 04:28:35;;;;;;;21.10;16.33;;;;;;;-4.46;94.10;97485.50;5074785;28;20403;-64
2021/12/22 04:31:01;;;;;;;21.15;15.70;;;;;;;-4.40;94.01;97490.13;5091475;28;20746;-64
2021/12/22 04:33:26;;;;;;;23.27;16.50;;;;;;;-4.37;93.16;97486.53;5091195;28;20493;-64
2021/12/22 04:35:53;;;;;;;20.67;15.87;;;;;;;-4.43;93.93;97477.59;5091293;28;20754;-64
2021/12/22 04:38:19;;;;;;;24.33;16.23;;;;;;;-4.29;93.01;97471.44;5091043;28;20444;-65
2021/12/22 04:40:45;;;;;;;23.10;17.00;;;;;;;-4.02;92.41;97479.53;5091406;28;20398;-64
2021/12/22 04:43:10;;;;;;;22.15;15.90;;;;;;;-4.04;91.97;97480.59;5091315;28;21147;-64
2021/12/22 04:45:36;;;;;;;19.43;13.10;;;;;;;-4.26;91.67;97476.31;5092018;28;20181;-65
2021/12/22 04:48:02;;;;;;;18.37;12.87;;;;;;;-4.35;92.85;97477.84;5091466;28;20656;-64
2021/12/22 04:50:28;;;;;;;16.50;11.43;;;;;;;-4.43;93.02;97480.16;5091326;28;20694;-64
2021/12/22 04:53:04;;;;;;;19.40;10.23;;;;;;;-4.64;94.07;97479.22;5092158;28;20185;-64
2021/12/22 04:55:29;;;;;;;15.73;10.97;;;;;;;-4.71;94.58;97475.47;5092258;28;20271;-64
2021/12/22 04:57:57;;;;;;;15.90;10.90;;;;;;;-4.66;94.81;97473.41;5092753;28;20275;-64
2021/12/22 05:00:26;;;;;;;15.67;11.03;;;;;;;-4.62;93.93;97483.28;5092296;28;20668;-64
2021/12/22 05:02:53;;;;;;;16.10;10.40;;;;;;;-4.68;94.01;97480.38;5092416;28;20212;-64
2021/12/22 05:05:19;;;;;;;17.07;11.03;;;;;;;-4.56;93.76;97481.19;5090682;28;20673;-64
2021/12/22 05:07:47;;;;;;;17.83;11.43;;;;;;;-4.68;94.50;97472.72;5092072;28;20180;-64
2021/12/22 05:10:14;;;;;;;16.77;11.03;;;;;;;-4.63;94.30;97465.50;5092401;28;20334;-69
2021/12/22 05:12:39;;;;;;;25.73;18.30;;;;;;;-4.47;94.21;97449.81;5091309;28;20441;-64
2021/12/22 05:15:05;;;;;;;25.87;18.73;;;;;;;-4.53;93.90;97448.53;5094643;28;20429;-64
2021/12/22 05:20:09;;;;;;;25.42;18.13;;;;;;;-4.62;93.86;97473.03;5095365;28;20425;-64
2021/12/22 05:22:35;;;;;;;25.93;18.27;;;;;;;-4.74;94.54;97480.84;5094939;28;20873;-65
2021/12/22 05:25:02;;;;;;;25.57;17.87;;;;;;;-4.67;94.26;97476.88;5094803;28;20454;-67
2021/12/22 05:27:29;;;;;;;25.08;17.90;;;;;;;-4.77;95.12;97475.94;5095103;28;20389;-64
2021/12/22 05:29:54;;;;;;;23.65;17.33;;;;;;;-4.66;94.95;97469.09;5093800;28;20754;-64
2021/12/22 05:32:22;;;;;;;24.23;17.60;;;;;;;-4.62;94.32;97477.34;5095228;28;20398;-64
2021/12/22 05:34:48;;;;;;;24.05;17.55;;;;;;;-4.68;94.25;97470.94;5094955;28;20401;-64
2021/12/22 05:37:13;;;;;;;25.57;18.07;;;;;;;-4.58;94.29;97475.38;5094849;28;20877;-67
2021/12/22 05:39:38;;;;;;;31.53;20.83;;;;;;;-4.78;95.05;97481.97;5094934;28;20438;-64
2021/12/22 05:42:04;;;;;;;27.13;19.02;;;;;;;-4.72;94.44;97484.06;5094486;28;20378;-64
2021/12/22 05:44:30;;;;;;;25.30;18.80;;;;;;;-4.68;95.26;97491.41;5094552;28;20417;-64
2021/12/22 05:46:55;;;;;;;23.30;17.70;;;;;;;-4.66;95.22;97486.19;5094690;28;20397;-64
2021/12/22 05:49:20;;;;;;;25.23;17.73;;;;;;;-4.75;95.32;97490.25;5094778;28;20397;-64
2021/12/22 05:51:46;;;;;;;28.27;18.70;;;;;;;-4.63;94.86;97496.19;5094154;28;20424;-64
2021/12/22 05:54:12;;;;;;;30.13;19.25;;;;;;;-4.72;95.07;97492.56;5094664;28;20408;-64
2021/12/22 05:56:37;;;;;;;29.90;19.73;;;;;;;-4.74;94.83;97493.63;5094603;28;20739;-64
2021/12/22 05:59:03;;;;;;;26.95;17.95;;;;;;;-4.74;95.03;97499.56;5094874;28;20412;-64
2021/12/22 06:01:30;;;;;;;27.42;18.98;;;;;;;-4.69;95.45;97496.66;5094205;28;20405;-64
2021/12/22 06:03:57;;;;;;;24.55;17.33;;;;;;;-4.76;95.43;97492.91;5092932;28;20435;-64
2021/12/22 06:06:22;;;;;;;24.35;17.77;;;;;;;-4.75;95.19;97492.81;5093441;28;20406;-64
2021/12/22 06:08:48;;;;;;;23.33;16.90;;;;;;;-4.75;95.30;97492.00;5092832;28;20800;-64
2021/12/22 06:11:13;;;;;;;23.37;17.70;;;;;;;-4.71;95.52;97498.50;5093980;28;20397;-64
2021/12/22 06:13:39;;;;;;;24.05;17.63;;;;;;;-4.72;95.65;97494.31;5094073;28;20397;-64
2021/12/22 06:16:04;;;;;;;24.70;18.00;;;;;;;-4.79;95.29;97499.06;5094295;28;20798;-64
2021/12/22 06:18:30;;;;;;;24.75;17.55;;;;;;;-4.80;96.06;97499.19;5093957;28;20385;-64
2021/12/22 06:20:55;;;;;;;28.60;18.83;;;;;;;-4.87;96.21;97501.38;5093986;28;20382;-65
2021/12/22 06:23:20;;;;;;;25.57;18.90;;;;;;;-4.72;95.29;97505.34;5093759;28;20738;-65
2021/12/22 06:25:46;;;;;;;25.73;18.97;;;;;;;-4.66;94.44;97496.41;5092532;28;20398;-64
2021/12/22 06:28:11;;;;;;;24.80;18.70;;;;;;;-4.56;94.16;97501.63;5094036;28;20393;-64
2021/12/22 06:30:37;;;;;;;24.40;17.93;;;;;;;-4.62;94.18;97495.25;5094032;28;20394;-65
2021/12/22 06:33:03;;;;;;;26.07;18.40;;;;;;;-4.61;93.92;97494.31;5093899;28;20402;-66
2021/12/22 06:35:28;;;;;;;25.73;18.30;;;;;;;-4.64;94.73;97495.38;5093366;28;20420;-71
2021/12/22 06:37:54;;;;;;;24.40;17.43;;;;;;;-4.70;94.48;97495.00;5093508;28;20779;-68
2021/12/22 06:40:20;;;;;;;26.17;18.37;;;;;;;-4.70;94.66;97492.47;5092417;28;20855;-66
2021/12/22 06:42:45;;;;;;;26.10;17.93;;;;;;;-4.85;95.03;97479.09;5093757;28;20463;-65
2021/12/22 06:45:13;;;;;;;25.97;18.67;;;;;;;-4.75;95.81;97492.81;5093660;28;20420;-65
2021/12/22 06:47:39;;;;;;;26.65;18.58;;;;;;;-4.75;95.51;97490.25;5093934;28;20371;-65
2021/12/22 06:50:06;;;;;;;26.83;18.60;;;;;;;-4.66;95.01;97489.56;5093444;28;20430;-66
2021/12/22 06:52:32;;;;;;;27.17;18.58;;;;;;;-4.53;94.00;97486.91;5091851;28;20405;-68
2021/12/22 06:54:58;;;;;;;26.65;18.58;;;;;;;-4.61;93.74;97490.03;5077424;28;20486;-65
2021/12/22 06:57:23;;;;;;;27.27;18.17;;;;;;;-4.84;94.54;97492.66;5093510;28;20408;-65
2021/12/22 06:59:49;;;;;;;25.60;18.73;;;;;;;-4.69;94.83;97501.75;5093393;28;20469;-65
2021/12/22 07:02:16;;;;;;;24.65;18.10;;;;;;;-4.79;94.98;97496.50;5093224;28;20392;-65
2021/12/22 07:04:41;;;;;;;27.13;18.48;;;;;;;-4.87;95.13;97493.72;5092695;28;20416;-66
2021/12/22 07:07:07;;;;;;;27.67;18.70;;;;;;;-4.73;94.64;97490.94;5091603;28;20401;-66
2021/12/22 07:09:32;;;;;;;28.07;19.50;;;;;;;-4.57;94.10;97489.81;5093162;28;20405;-67
2021/12/22 07:11:59;;;;;;;28.00;19.27;;;;;;;-4.53;93.21;97491.19;5093277;28;20469;-66
2021/12/22 07:14:24;;;;;;;27.35;18.48;;;;;;;-4.58;92.77;97499.22;5092603;28;20401;-65
2021/12/22 07:16:49;;;;;;;25.85;18.60;;;;;;;-4.57;93.04;97497.47;5092848;28;20382;-66
2021/12/22 07:19:15;;;;;;;27.67;18.70;;;;;;;-4.60;92.35;97495.94;5093373;28;20469;-65
2021/12/22 07:21:40;;;;;;;27.20;19.10;;;;;;;-4.55;92.96;97493.03;5092753;28;20769;-65
2021/12/22 07:24:07;;;;;;;26.63;18.93;;;;;;;-4.43;92.54;97485.25;5092387;28;20485;-66
2021/12/22 07:26:33;;;;;;;26.10;18.90;;;;;;;-4.48;91.93;97484.00;5091824;28;20404;-66
2021/12/22 07:28:58;;;;;;;26.75;18.48;;;;;;;-4.19;91.91;97485.16;5092534;28;20850;-66
2021/12/22 07:31:24;;;;;;;26.73;18.40;;;;;;;-4.03;90.86;97492.44;5092473;28;20861;-65
2021/12/22 07:34:07;;;;;;;26.95;18.42;;;;;;;-4.39;91.94;97496.88;5091802;28;20394;-67
2021/12/22 07:36:34;;;;;;;25.88;19.13;;;;;;;-4.22;91.00;97505.84;5091232;28;20935;-67
2021/12/22 07:39:03;;;;;;;27.13;18.42;;;;;;;-4.48;93.33;97514.69;5092734;28;20489;-71
2021/12/22 07:41:30;;;;;;;24.60;18.13;;;;;;;-4.47;92.56;97517.13;5091153;28;20481;-69
2021/12/22 07:43:56;;;;;;;24.43;18.13;;;;;;;-4.45;93.24;97517.00;5092223;28;20410;-67
2021/12/22 07:46:22;;;;;;;26.47;17.43;;;;;;;-4.20;91.67;97522.72;5091843;28;20537;-65
2021/12/22 07:48:47;;;;;;;24.60;17.63;;;;;;;-3.85;90.72;97519.19;5092689;28;20394;-66
2021/12/22 07:51:13;;;;;;;24.57;17.30;;;;;;;-3.81;89.16;97526.50;5091963;28;20394;-67
2021/12/22 07:53:38;;;;;;;23.40;16.40;;;;;;;-3.81;89.52;97528.25;5091719;28;20390;-66
2021/12/22 07:56:04;;;;;;;23.37;16.97;;;;;;;-3.57;88.96;97530.66;5091861;28;20397;-67
2021/12/22 07:58:30;;;;;;;22.97;16.77;;;;;;;-3.61;88.02;97529.25;5091893;28;20587;-67
2021/12/22 08:00:56;;;;;;;22.73;15.93;;;;;;;-3.47;87.82;97532.38;5090488;28;20486;-70
2021/12/22 08:03:23;;;;;;;23.35;16.95;;;;;;;-3.18;87.15;97527.50;5091272;28;20398;-66
2021/12/22 08:05:50;;;;;;;21.17;16.25;;;;;;;-3.16;85.71;97530.72;5089401;28;21148;-67
2021/12/22 08:08:17;;;;;;;23.70;16.30;;;;;;;-3.07;86.00;97529.19;5090741;28;20397;-67
2021/12/22 08:10:43;;;;;;;21.45;15.65;;;;;;;-2.91;85.43;97521.06;5091612;28;20393;-67
2021/12/22 08:13:09;;;;;;;20.65;15.50;;;;;;;-2.93;84.25;97526.31;5091119;28;20866;-66
2021/12/22 08:15:34;;;;;;;21.20;15.65;;;;;;;-2.96;84.90;97524.84;5091764;28;20393;-64
2021/12/22 08:18:00;;;;;;;22.38;15.45;;;;;;;-3.11;85.21;97528.63;5091381;28;20391;-64
2021/12/22 08:20:25;;;;;;;20.80;15.60;;;;;;;-3.02;85.85;97527.88;5091689;28;20390;-64
2021/12/22 08:22:51;;;;;;;21.57;15.57;;;;;;;-2.89;84.75;97529.44;5090239;28;20770;-65
2021/12/22 08:25:17;;;;;;;20.70;15.27;;;;;;;-2.84;84.46;97529.91;5090023;28;20509;-65
2021/12/22 08:27:42;;;;;;;22.47;16.10;;;;;;;-2.76;84.13;97535.19;5091948;28;20463;-65
2021/12/22 08:30:08;;;;;;;18.87;14.73;;;;;;;-2.59;84.13;97532.88;5091224;28;20398;-65
2021/12/22 08:32:34;;;;;;;20.67;15.50;;;;;;;-2.68;83.32;97533.66;5091465;28;20506;-64
2021/12/22 08:35:03;;;;;;;20.70;15.40;;;;;;;-2.59;83.00;97532.88;5090916;28;20477;-65
2021/12/22 08:40:17;;;;;;;21.63;15.70;;;;;;;-2.30;82.26;97530.47;5091006;28;20428;-65
2021/12/22 08:42:44;;;;;;;19.65;14.63;;;;;;;-2.66;83.70;97528.38;5091064;28;20708;-64
2021/12/22 08:45:11;;;;;;;20.88;15.48;;;;;;;-2.26;81.73;97529.28;5090925;28;20410;-65
2021/12/22 08:47:36;;;;;;;23.10;15.57;;;;;;;-2.19;81.49;97522.69;5090662;28;20463;-65
2021/12/22 08:50:04;;;;;;;21.27;15.35;;;;;;;-2.20;81.52;97521.06;5090972;28;20390;-65
2021/12/22 08:52:30;;;;;;;21.10;15.50;;;;;;;-2.03;81.19;97523.97;5090730;28;20485;-66
2021/12/22 08:54:55;;;;;;;22.95;16.17;;;;;;;-2.10;81.14;97526.22;5090786;28;20898;-66
2021/12/22 08:57:20;;;;;;;20.90;16.10;;;;;;;-1.97;80.44;97519.13;5087393;28;20436;-64
2021/12/22 08:59:46;;;;;;;20.63;15.60;;;;;;;-2.13;81.24;97518.78;5089665;28;20434;-64
2021/12/22 09:02:12;;;;;;;22.17;15.82;;;;;;;-2.01;80.98;97516.94;5090587;28;20414;-65
2021/12/22 09:04:37;;;;;;;22.98;16.42;;;;;;;-1.91;80.84;97512.66;5090613;28;20874;-65
2021/12/22 09:07:03;;;;;;;21.95;15.82;;;;;;;-1.95;80.94;97503.59;5090529;28;20412;-64
2021/12/22 09:09:28;;;;;;;20.88;15.07;;;;;;;-2.03;80.92;97500.84;5090691;28;20398;-64
2021/12/22 09:11:54;;;;;;;19.27;14.97;;;;;;;-1.88;80.01;97505.47;5091265;28;20438;-64
2021/12/22 09:14:21;;;;;;;20.50;15.27;;;;;;;-1.91;80.39;97507.50;5090340;28;20426;-64
2021/12/22 09:16:48;;;;;;;20.67;15.77;;;;;;;-1.82;80.34;97512.66;5090620;28;20393;-64
2021/12/22 09:19:14;;;;;;;22.38;14.85;;;;;;;-2.04;80.93;97507.72;5090767;28;20443;-64
2021/12/22 09:21:40;;;;;;;18.73;14.90;;;;;;;-1.62;80.13;97510.16;5089520;28;20389;-64
2021/12/22 09:24:05;;;;;;;19.75;14.85;;;;;;;-1.83;80.13;97507.66;5090222;28;20455;-64
2021/12/22 09:26:31;;;;;;;20.98;15.55;;;;;;;-1.50;79.56;97506.50;5093189;28;20403;-64
2021/12/22 09:28:58;;;;;;;18.20;14.73;;;;;;;-1.78;80.59;97511.44;5097012;28;20482;-64
2021/12/22 09:31:24;;;;;;;20.25;14.63;;;;;;;-1.72;80.61;97510.09;5090679;28;20401;-64
2021/12/22 09:33:50;;;;;;;20.42;14.60;;;;;;;-1.60;79.58;97508.25;5090417;28;20386;-65
2021/12/22 09:36:16;;;;;;;18.65;14.15;;;;;;;-1.55;79.05;97514.59;5090163;28;20872;-64
2021/12/22 09:38:42;;;;;;;20.42;15.70;;;;;;;-1.30;78.83;97511.53;5091144;28;20418;-64
2021/12/22 09:41:08;;;;;;;18.38;14.18;;;;;;;-1.60;78.79;97503.91;5090597;28;20473;-64
2021/12/22 09:43:34;;;;;;;20.05;14.45;;;;;;;-1.38;77.07;97501.09;5090130;28;20501;-64
2021/12/22 09:46:05;;;;;;;19.15;14.02;;;;;;;-1.33;76.86;97501.50;5088688;28;20478;-67
2021/12/22 09:53:29;;;;;;;18.47;14.07;;;;;;;-1.21;76.68;97491.91;5090623;28;20467;-64
2021/12/22 09:55:56;;;;;;;19.10;13.57;;;;;;;-1.06;76.06;97493.09;5090023;28;20893;-64
2021/12/22 09:58:22;;;;;;;19.20;14.48;;;;;;;-1.10;75.89;97493.53;5086854;28;20421;-64
2021/12/22 10:00:49;;;;;;;20.63;14.73;;;;;;;-1.33;77.23;97496.38;5093308;28;20850;-64
2021/12/22 10:03:14;;;;;;;20.53;13.97;;;;;;;-1.14;77.16;97490.41;5092584;28;20473;-64
2021/12/22 10:05:42;;;;;;;17.92;13.98;;;;;;;-1.18;77.06;97498.53;5092145;28;20413;-67
2021/12/22 10:08:20;;;;;;;20.30;14.48;;;;;;;-1.43;78.44;97494.72;5094866;28;20510;-64
2021/12/22 10:11:03;;;;;;;21.53;15.03;;;;;;;-1.14;77.32;97490.41;5093956;28;20481;-64
2021/12/22 10:13:30;;;;;;;21.02;15.18;;;;;;;-1.13;77.24;97489.47;5094061;28;20411;-65
2021/12/22 10:15:57;;;;;;;19.58;14.77;;;;;;;-1.03;77.35;97487.69;5093723;28;20881;-66
2021/12/22 10:18:27;;;;;;;19.85;14.80;;;;;;;-0.98;77.18;97487.28;5093761;28;20390;-66
2021/12/22 10:21:07;;;;;;;19.10;14.90;;;;;;;-0.91;76.33;97489.19;5093714;28;20394;-65
2021/12/22 10:23:33;;;;;;;19.67;14.60;;;;;;;-0.88;76.05;97481.19;5094108;28;20516;-65
2021/12/22 10:26:01;;;;;;;20.23;14.90;;;;;;;-0.94;76.03;97473.19;5093932;28;20933;-65
2021/12/22 10:28:29;;;;;;;18.92;13.90;;;;;;;-0.89;76.19;97476.16;5107194;28;20402;-65
2021/12/22 10:30:58;;;;;;;20.90;15.02;;;;;;;-0.91;76.67;97478.88;5093533;28;20738;-65
2021/12/22 10:33:26;;;;;;;19.65;14.23;;;;;;;-0.76;76.06;97468.16;5093765;28;20436;-65
2021/12/22 10:35:54;;;;;;;20.00;14.38;;;;;;;-0.51;76.96;97463.22;5093718;28;20402;-65
2021/12/22 10:38:26;;;;;;;18.15;14.60;;;;;;;-0.19;75.94;97454.28;5093810;28;20417;-65
2021/12/22 10:40:55;;;;;;;19.67;14.45;;;;;;;-0.42;75.12;97457.22;5093933;28;20695;-65
2021/12/22 10:43:29;;;;;;;20.15;14.82;;;;;;;-0.36;75.17;97450.69;5093726;28;20398;-65
2021/12/22 10:46:00;;;;;;;20.25;14.30;;;;;;;-0.26;74.72;97445.50;5093859;28;20386;-64
2021/12/22 10:51:33;;;;;;;19.10;13.88;;;;;;;-0.38;74.41;97436.31;5093364;28;20455;-66
2021/12/22 10:54:00;;;;;;;19.42;13.73;;;;;;;-0.33;74.65;97444.44;5093878;28;20389;-65
2021/12/22 10:56:34;;;;;;;18.90;13.85;;;;;;;-0.24;73.87;97444.41;5091790;28;20992;-65
2021/12/22 10:59:13;;;;;;;17.73;13.00;;;;;;;-0.31;73.80;97430.47;5084346;28;20610;-65
2021/12/22 11:02:10;;;;;;;17.55;14.05;;;;;;;-0.25;73.97;97419.59;5093564;28;20469;-64
2021/12/22 11:04:43;;;;;;;19.80;14.10;;;;;;;-0.01;73.95;97413.91;5093056;28;20814;-65
2021/12/22 11:07:16;;;;;;;17.50;13.38;;;;;;;-0.25;73.99;97409.28;5091997;28;20433;-64
2021/12/22 11:09:42;;;;;;;18.10;14.03;;;;;;;-0.07;73.09;97412.72;5093344;28;20394;-65
2021/12/22 11:12:08;;;;;;;20.07;14.23;;;;;;;-0.05;72.94;97404.84;5091302;28;20724;-65
2021/12/22 11:14:38;;;;;;;16.70;13.38;;;;;;;-0.04;72.74;97404.69;5092895;28;20485;-66
2021/12/22 11:17:09;;;;;;;18.83;13.68;;;;;;;-0.07;72.35;97405.00;5091497;28;20746;-66
2021/12/22 11:19:37;;;;;;;16.67;13.00;;;;;;;-0.44;73.90;97402.47;5093221;28;20405;-65
2021/12/22 11:22:16;;;;;;;19.23;14.25;;;;;;;-0.23;73.79;97394.53;5077743;28;20401;-65
2021/12/22 11:24:42;;;;;;;18.97;13.90;;;;;;;0.04;73.31;97396.25;5091299;28;20406;-66
2021/12/22 11:27:09;;;;;;;19.40;14.38;;;;;;;0.31;72.01;97393.63;5100621;28;20524;-65
2021/12/22 11:29:37;;;;;;;17.57;13.50;;;;;;;0.19;72.35;97394.78;5095983;28;20383;-65
2021/12/22 11:32:04;;;;;;;18.33;14.07;;;;;;;0.16;72.27;97386.53;5092552;28;20704;-65
2021/12/22 11:34:34;;;;;;;18.73;14.07;;;;;;;-0.05;72.68;97392.75;5092795;28;20398;-65
2021/12/22 11:37:01;;;;;;;18.08;13.40;;;;;;;0.02;73.18;97381.88;5107973;28;20414;-65
2021/12/22 11:39:27;;;;;;;17.77;13.13;;;;;;;0.02;72.52;97387.03;5092640;28;20398;-66
2021/12/22 11:41:57;;;;;;;18.10;14.00;;;;;;;0.22;71.40;97388.53;5092320;28;20386;-65
2021/12/22 11:44:25;;;;;;;17.93;13.60;;;;;;;0.26;71.46;97390.66;5092627;28;20914;-65